Time;durP1;ratioP1;P1;durP2;ratioP2;P2;SDS_P1;SDS_P2;PMS_P1;PMS_P2;Temp;Humidity;BMP_temperature;BMP_pressure;BME280_temperature;BME280_humidity;BME280_pressure;Samples;Min_cycle;Max_cycle;Signal;HPM_P1;HPM_P2
2023/06/08 00:00:27;;;;;;;19.73;8.25;;;;;;;-146.25;100.00;52128.94;2079733;28;36547;-71
2023/06/08 00:01:31;;;;;;;22.30;9.13;;;;;;;-146.25;100.00;52120.84;2080225;28;31517;-71
2023/06/08 00:02:32;;;;;;;18.02;8.75;;;;;;;-146.25;100.00;52149.22;2079215;28;40469;-72
2023/06/08 00:03:38;;;;;;;18.05;8.65;;;;;;;-146.25;100.00;52135.03;2079297;28;20976;-72
2023/06/08 00:04:40;;;;;;;18.48;9.10;;;;;;;-146.25;100.00;52135.03;2079476;28;38893;-72
2023/06/08 00:05:50;;;;;;;18.58;8.82;;;;;;;-146.25;100.00;52161.38;2079175;28;39175;-73
2023/06/08 00:06:52;;;;;;;20.85;8.88;;;;;;;-146.25;100.00;52173.56;2087335;28;37194;-73
2023/06/08 00:07:56;;;;;;;16.13;9.05;;;;;;;-146.25;100.00;52139.09;2086196;28;40478;-73
2023/06/08 00:08:58;;;;;;;16.63;9.15;;;;;;;-146.25;100.00;52143.13;2079734;28;32228;-73
2023/06/08 00:10:00;;;;;;;20.77;8.65;;;;;;;-146.25;100.00;52108.66;2080190;28;20161;-73
2023/06/08 00:11:02;;;;;;;17.55;9.05;;;;;;;-146.25;100.00;52157.34;2079811;28;32485;-73
2023/06/08 00:12:05;;;;;;;19.05;8.93;;;;;;;-146.25;100.00;52167.47;2079674;28;34924;-73
2023/06/08 00:13:07;;;;;;;21.90;9.32;;;;;;;-146.25;100.00;52124.91;2079963;28;20882;-73
2023/06/08 00:14:09;;;;;;;18.80;8.60;;;;;;;-146.25;100.00;52153.28;2079760;28;37014;-73
2023/06/08 00:15:13;;;;;;;19.40;8.68;;;;;;;-146.25;100.00;52157.34;2080370;28;33289;-73
2023/06/08 00:16:15;;;;;;;19.83;8.98;;;;;;;-146.25;100.00;52143.13;2079247;28;35210;-73
2023/06/08 00:17:17;;;;;;;21.20;8.68;;;;;;;-146.25;100.00;52175.56;2078694;28;38141;-73
2023/06/08 00:18:19;;;;;;;18.38;8.25;;;;;;;-146.25;100.00;52153.28;2070953;28;33554;-73
2023/06/08 00:19:24;;;;;;;22.48;8.70;;;;;;;-146.25;100.00;52112.72;2078530;28;37929;-73
2023/06/08 00:20:29;;;;;;;17.83;8.52;;;;;;;-146.25;100.00;52116.78;2079800;28;35032;-73
2023/06/08 00:21:33;;;;;;;22.73;9.93;;;;;;;-146.25;100.00;52122.88;2079600;28;33500;-73
2023/06/08 00:22:36;;;;;;;26.35;10.43;;;;;;;-146.25;100.00;52145.16;2079358;28;35391;-73
2023/06/08 00:23:39;;;;;;;18.33;9.60;;;;;;;-146.25;100.00;52153.28;2079692;28;35760;-73
2023/06/08 00:24:40;;;;;;;23.33;10.18;;;;;;;-146.25;100.00;52145.16;2079607;28;35119;-72
2023/06/08 00:25:44;;;;;;;16.13;9.35;;;;;;;-146.25;100.00;52139.09;2079300;28;36130;-73
2023/06/08 00:26:46;;;;;;;18.08;9.63;;;;;;;-146.25;100.00;52153.28;2079867;28;20156;-73
2023/06/08 00:27:48;;;;;;;19.80;9.95;;;;;;;-146.25;100.00;52128.94;2079013;28;31296;-73
2023/06/08 00:28:50;;;;;;;15.73;9.50;;;;;;;-146.25;100.00;52155.31;2078974;28;36241;-73
2023/06/08 00:29:52;;;;;;;25.05;9.23;;;;;;;-146.25;100.00;52128.94;2087442;28;29695;-73
2023/06/08 00:30:54;;;;;;;23.90;10.00;;;;;;;-146.25;100.00;52167.47;2079412;28;20056;-72
2023/06/08 00:31:56;;;;;;;21.85;9.35;;;;;;;-146.25;100.00;52153.28;2070939;28;29753;-73
2023/06/08 00:32:58;;;;;;;26.63;10.80;;;;;;;-146.25;100.00;52149.22;2079076;28;20367;-73
2023/06/08 00:34:02;;;;;;;23.25;11.27;;;;;;;-146.25;100.00;52159.34;2080075;28;20165;-73
2023/06/08 00:35:06;;;;;;;25.17;9.98;;;;;;;-146.25;100.00;52141.13;2079842;28;20081;-72
2023/06/08 00:36:08;;;;;;;19.50;9.63;;;;;;;-146.25;100.00;52130.97;2087316;28;32986;-73
2023/06/08 00:37:12;;;;;;;19.15;9.35;;;;;;;-146.25;100.00;52165.44;2078907;28;27127;-73
2023/06/08 00:38:14;;;;;;;21.08;10.02;;;;;;;-146.25;100.00;52157.34;2078964;28;29207;-73
2023/06/08 00:39:16;;;;;;;21.45;10.15;;;;;;;-146.25;100.00;52175.56;2079624;28;25253;-73
2023/06/08 00:40:18;;;;;;;22.38;10.57;;;;;;;-146.25;100.00;52197.88;2079324;28;20164;-73
2023/06/08 00:41:22;;;;;;;24.65;11.57;;;;;;;-146.25;100.00;52175.56;2078846;28;23086;-73
2023/06/08 00:42:24;;;;;;;21.80;11.60;;;;;;;-146.25;100.00;52159.34;2079908;28;21374;-72
2023/06/08 00:43:28;;;;;;;19.75;10.80;;;;;;;-146.25;100.00;52137.06;2079406;28;33084;-73
2023/06/08 00:44:30;;;;;;;23.08;11.55;;;;;;;-146.25;100.00;52161.38;2079015;28;28040;-72
2023/06/08 00:45:32;;;;;;;24.85;11.02;;;;;;;-146.25;100.00;52177.59;2078716;28;32234;-74
2023/06/08 00:46:35;;;;;;;22.73;10.93;;;;;;;-146.25;100.00;52161.38;2080752;28;21184;-73
2023/06/08 00:47:39;;;;;;;22.17;10.70;;;;;;;-146.25;100.00;52181.66;2079511;28;33375;-73
2023/06/08 00:48:42;;;;;;;21.10;10.45;;;;;;;-146.25;100.00;52118.81;2078987;28;31859;-72
2023/06/08 00:49:45;;;;;;;26.83;10.80;;;;;;;-146.25;100.00;52153.28;2078593;28;24913;-72
2023/06/08 00:50:48;;;;;;;23.83;10.82;;;;;;;-146.25;100.00;52143.13;2079441;28;35315;-72
2023/06/08 00:51:52;;;;;;;21.40;9.80;;;;;;;-146.25;100.00;52165.44;2079786;28;20181;-73
2023/06/08 00:52:53;;;;;;;19.08;10.38;;;;;;;-146.25;100.00;52151.25;2087368;28;27216;-74
2023/06/08 00:53:57;;;;;;;25.65;10.27;;;;;;;-146.25;100.00;52126.91;2078644;28;32849;-73
2023/06/08 00:55:00;;;;;;;17.63;11.10;;;;;;;-146.25;100.00;52159.34;2071189;28;20720;-74
2023/06/08 00:56:07;;;;;;;21.33;11.27;;;;;;;-146.25;100.00;52141.13;2079681;28;20880;-74
2023/06/08 00:57:10;;;;;;;20.00;10.63;;;;;;;-146.25;100.00;52133.00;2080320;28;20897;-73
2023/06/08 00:58:13;;;;;;;25.17;10.65;;;;;;;-146.25;100.00;52143.13;2078653;28;32343;-74
2023/06/08 00:59:15;;;;;;;27.92;10.77;;;;;;;-146.25;100.00;52149.22;2079126;28;32482;-73
2023/06/08 01:00:18;;;;;;;20.17;10.85;;;;;;;-146.25;100.00;52163.41;2078905;28;26111;-73
2023/06/08 01:01:19;;;;;;;28.90;11.82;;;;;;;-146.25;100.00;52206.00;2079085;28;21173;-73
2023/06/08 01:02:23;;;;;;;21.50;11.32;;;;;;;-146.25;100.00;52137.06;2079855;28;20038;-73
2023/06/08 01:03:33;;;;;;;24.25;11.70;;;;;;;-146.25;100.00;52153.28;2079663;28;20046;-74
2023/06/08 01:04:36;;;;;;;24.77;11.52;;;;;;;-146.25;100.00;52173.56;2079745;28;20111;-73
2023/06/08 01:05:43;;;;;;;24.83;10.43;;;;;;;-146.25;100.00;52157.34;2080104;28;20875;-73
2023/06/08 01:06:48;;;;;;;17.17;9.70;;;;;;;-146.25;100.00;52141.13;2078601;28;39251;-73
2023/06/08 01:08:37;;;;;;;15.95;9.20;;;;;;;-146.25;100.00;52116.78;2072381;28;21104;-73
2023/06/08 01:10:06;;;;;;;17.23;7.75;;;;;;;-146.25;100.00;52193.81;2079623;28;29222;-73
2023/06/08 01:11:49;;;;;;;17.80;7.60;;;;;;;-146.25;100.00;52185.72;2079970;28;20042;-72
2023/06/08 01:13:53;;;;;;;14.85;6.97;;;;;;;-146.25;100.00;52149.22;2086990;28;36206;-72
2023/06/08 01:15:33;;;;;;;16.90;7.72;;;;;;;-146.25;100.00;52179.63;2059624;28;20127;-72
2023/06/08 01:16:39;;;;;;;19.58;7.40;;;;;;;-146.25;100.00;52120.84;2081258;28;26986;-71
2023/06/08 01:17:52;;;;;;;14.38;6.32;;;;;;;-146.25;100.00;52157.34;2088753;28;26762;-72
2023/06/08 01:18:59;;;;;;;18.60;7.82;;;;;;;-146.25;100.00;52153.28;2077599;28;32510;-72
2023/06/08 01:20:36;;;;;;;16.15;8.13;;;;;;;-146.25;100.00;52163.41;2067615;28;20051;-72
2023/06/08 01:22:17;;;;;;;13.52;6.90;;;;;;;-146.25;100.00;52147.19;2077212;28;28320;-73
2023/06/08 01:23:34;;;;;;;19.77;7.18;;;;;;;-146.25;100.00;52165.44;2080138;28;28782;-73
2023/06/08 01:24:40;;;;;;;16.67;7.10;;;;;;;-146.25;100.00;52169.50;2074179;28;33100;-73
2023/06/08 01:25:42;;;;;;;18.90;6.65;;;;;;;-146.25;100.00;52149.22;2065230;28;20081;-72
2023/06/08 01:26:52;;;;;;;22.17;7.13;;;;;;;-146.25;100.00;52175.56;2065652;28;20507;-72
2023/06/08 01:28:12;;;;;;;14.88;6.63;;;;;;;-146.25;100.00;52157.34;2073822;28;25769;-72
2023/06/08 01:29:21;;;;;;;12.70;6.53;;;;;;;-146.25;100.00;52141.13;2081047;28;20160;-73
2023/06/08 01:30:26;;;;;;;21.00;7.20;;;;;;;-146.25;100.00;52149.22;2081125;28;26046;-72
2023/06/08 01:31:28;;;;;;;25.33;7.75;;;;;;;-146.25;100.00;52173.56;2080063;28;28904;-73
2023/06/08 01:32:34;;;;;;;16.33;7.50;;;;;;;-146.25;100.00;52177.59;2081345;28;20109;-72
2023/06/08 01:33:38;;;;;;;18.50;7.22;;;;;;;-146.25;100.00;52169.50;2080989;28;23991;-72
2023/06/08 01:34:42;;;;;;;17.15;6.90;;;;;;;-146.25;100.00;52181.66;2088808;28;30782;-72
2023/06/08 01:36:11;;;;;;;18.75;7.32;;;;;;;-146.25;100.00;52143.13;2079921;28;21274;-72
2023/06/08 01:37:29;;;;;;;18.13;7.55;;;;;;;-146.25;100.00;52143.13;2072714;28;20119;-72
2023/06/08 01:39:28;;;;;;;20.02;8.02;;;;;;;-146.25;100.00;52159.34;2078082;28;20429;-73
2023/06/08 01:40:37;;;;;;;12.93;7.05;;;;;;;-146.25;100.00;52122.88;2055585;28;28261;-72
2023/06/08 01:41:44;;;;;;;18.17;8.02;;;;;;;-146.25;100.00;52151.25;2055635;28;20126;-72
2023/06/08 01:42:50;;;;;;;16.60;7.45;;;;;;;-146.25;100.00;52159.34;2047394;28;29561;-72
2023/06/08 01:43:54;;;;;;;18.70;7.47;;;;;;;-146.25;100.00;52149.22;2040356;28;25745;-73
2023/06/08 01:45:06;;;;;;;16.85;7.40;;;;;;;-146.25;100.00;52153.28;2041302;28;20478;-73
2023/06/08 01:46:11;;;;;;;15.93;7.60;;;;;;;-146.25;100.00;52189.78;2055435;28;31076;-72
2023/06/08 01:47:16;;;;;;;23.45;7.95;;;;;;;-146.25;100.00;52155.31;2072389;28;23259;-73
2023/06/08 01:48:22;;;;;;;14.88;7.30;;;;;;;-146.25;100.00;52193.81;2072440;28;33542;-72
2023/06/08 01:49:27;;;;;;;17.00;7.47;;;;;;;-146.25;100.00;52206.00;2071678;28;33606;-73
2023/06/08 01:50:31;;;;;;;19.85;7.63;;;;;;;-146.25;100.00;52116.78;2071891;28;28906;-71
2023/06/08 01:51:36;;;;;;;16.00;7.22;;;;;;;-146.25;100.00;52157.34;2064161;28;20990;-72
2023/06/08 01:52:43;;;;;;;20.75;7.57;;;;;;;-146.25;100.00;52171.53;2064159;28;31944;-72
2023/06/08 01:53:47;;;;;;;15.18;7.50;;;;;;;-146.25;100.00;52165.44;2072202;28;25300;-71
2023/06/08 01:54:50;;;;;;;15.85;7.15;;;;;;;-146.25;100.00;52149.22;2064015;28;20050;-71
2023/06/08 01:55:53;;;;;;;16.90;7.35;;;;;;;-146.25;100.00;52169.50;2064564;28;20977;-72
2023/06/08 01:56:55;;;;;;;17.13;8.05;;;;;;;-146.25;100.00;52165.44;2072149;28;20038;-72
2023/06/08 01:57:58;;;;;;;22.17;8.00;;;;;;;-146.25;100.00;52173.56;2072315;28;20074;-72
2023/06/08 01:59:03;;;;;;;18.35;8.23;;;;;;;-146.25;100.00;52141.13;2064139;28;20055;-72
2023/06/08 02:00:09;;;;;;;16.52;7.43;;;;;;;-146.25;100.00;52159.34;2064018;28;20043;-72
2023/06/08 02:01:12;;;;;;;19.13;8.10;;;;;;;-146.25;100.00;52135.03;2079273;28;20949;-72
2023/06/08 02:02:14;;;;;;;19.98;9.45;;;;;;;-146.25;100.00;52149.22;2081360;28;24517;-71
2023/06/08 02:03:16;;;;;;;18.67;8.38;;;;;;;-146.25;100.00;52208.03;2080557;28;21512;-72
2023/06/08 02:04:18;;;;;;;19.17;8.45;;;;;;;-146.25;100.00;52149.22;2080860;28;20967;-72
2023/06/08 02:05:20;;;;;;;23.00;9.43;;;;;;;-146.25;100.00;52149.22;2088220;28;20108;-72
2023/06/08 02:06:22;;;;;;;28.38;9.48;;;;;;;-146.25;100.00;52128.94;2088115;28;32878;-71
2023/06/08 02:07:27;;;;;;;20.50;8.82;;;;;;;-146.25;100.00;52157.34;2080716;28;20135;-72
2023/06/08 02:08:31;;;;;;;24.05;8.98;;;;;;;-146.25;100.00;52165.44;2079433;28;30865;-72
2023/06/08 02:09:32;;;;;;;24.98;9.57;;;;;;;-146.25;100.00;52137.06;2080222;28;26926;-72
2023/06/08 02:10:34;;;;;;;20.10;9.00;;;;;;;-146.25;100.00;52157.34;2088630;28;20049;-71
2023/06/08 02:11:36;;;;;;;18.27;9.27;;;;;;;-146.25;100.00;52159.34;2087834;28;34701;-72
2023/06/08 02:12:38;;;;;;;19.85;9.68;;;;;;;-146.25;100.00;52165.44;2080786;28;29342;-72
2023/06/08 02:13:43;;;;;;;21.98;9.55;;;;;;;-146.25;100.00;52171.53;2080368;28;20057;-72
2023/06/08 02:14:46;;;;;;;25.52;9.70;;;;;;;-146.25;100.00;52157.34;2080614;28;20081;-72
2023/06/08 02:15:48;;;;;;;23.85;9.32;;;;;;;-146.25;100.00;52185.72;2080137;28;20879;-72
2023/06/08 02:16:50;;;;;;;18.15;8.95;;;;;;;-146.25;100.00;52137.06;2080508;28;23958;-72
2023/06/08 02:17:53;;;;;;;22.60;10.38;;;;;;;-146.25;100.00;52187.75;2080327;28;27237;-72
2023/06/08 02:18:55;;;;;;;21.00;9.63;;;;;;;-146.25;100.00;52151.25;2087648;28;30212;-72
2023/06/08 02:20:02;;;;;;;17.13;9.25;;;;;;;-146.25;100.00;52149.22;2087580;28;30276;-72
2023/06/08 02:21:04;;;;;;;25.13;10.10;;;;;;;-146.25;100.00;52157.34;2079746;28;20084;-72
2023/06/08 02:22:06;;;;;;;19.15;9.52;;;;;;;-146.25;100.00;52137.06;2072473;28;24560;-72
2023/06/08 02:23:10;;;;;;;18.67;8.68;;;;;;;-146.25;100.00;52137.06;2071555;28;32985;-72
2023/06/08 02:24:12;;;;;;;23.60;9.07;;;;;;;-146.25;100.00;52116.78;2072239;28;20849;-72
2023/06/08 02:25:16;;;;;;;23.98;8.80;;;;;;;-146.25;100.00;52171.53;2079922;28;20026;-71
2023/06/08 02:26:24;;;;;;;21.45;9.07;;;;;;;-146.25;100.00;52187.75;2071745;28;20051;-72
2023/06/08 02:27:28;;;;;;;25.85;10.07;;;;;;;-146.25;100.00;52203.97;2072351;28;22763;-71
2023/06/08 02:28:30;;;;;;;22.23;8.95;;;;;;;-146.25;100.00;52135.03;2072469;28;28857;-73
2023/06/08 02:29:31;;;;;;;18.90;8.65;;;;;;;-146.25;100.00;52149.22;2072490;28;23113;-71
2023/06/08 02:30:35;;;;;;;17.83;8.52;;;;;;;-146.25;100.00;52185.72;2072836;28;20156;-73
2023/06/08 02:31:37;;;;;;;19.98;9.57;;;;;;;-146.25;100.00;52208.03;2072411;28;20038;-73
2023/06/08 02:32:41;;;;;;;21.60;8.82;;;;;;;-146.25;100.00;52159.34;2071907;28;20049;-72
2023/06/08 02:33:44;;;;;;;16.60;8.40;;;;;;;-146.25;100.00;52145.16;2071742;28;20950;-73
2023/06/08 02:34:55;;;;;;;20.02;8.98;;;;;;;-146.25;100.00;52185.72;2072616;28;20034;-71
2023/06/08 02:36:00;;;;;;;16.33;7.80;;;;;;;-146.25;100.00;52183.69;2071959;28;20053;-71
2023/06/08 02:37:05;;;;;;;16.58;8.80;;;;;;;-146.25;100.00;52157.34;2064443;28;20257;-72
2023/06/08 02:38:07;;;;;;;19.63;9.25;;;;;;;-146.25;100.00;52173.56;2063739;28;20839;-71
2023/06/08 02:39:08;;;;;;;25.70;9.10;;;;;;;-146.25;100.00;52167.47;2055917;28;20043;-73
2023/06/08 02:40:13;;;;;;;18.65;8.77;;;;;;;-146.25;100.00;52157.34;2056329;28;20059;-71
2023/06/08 02:41:16;;;;;;;18.02;8.40;;;;;;;-146.25;100.00;52214.09;2071833;28;20049;-72
2023/06/08 02:42:18;;;;;;;18.85;8.50;;;;;;;-146.25;100.00;52149.22;2063284;28;20042;-72
2023/06/08 02:43:21;;;;;;;21.15;8.55;;;;;;;-146.25;100.00;52153.28;2064046;28;20851;-72
2023/06/08 02:44:24;;;;;;;15.75;8.13;;;;;;;-146.25;100.00;52163.41;2064122;28;20054;-71
2023/06/08 02:45:26;;;;;;;19.45;8.18;;;;;;;-146.25;100.00;52179.63;2063795;28;20054;-72
2023/06/08 02:46:31;;;;;;;18.90;8.25;;;;;;;-146.25;100.00;52141.13;2072170;28;20042;-72
2023/06/08 02:47:34;;;;;;;21.58;8.32;;;;;;;-146.25;100.00;52157.34;2072296;28;20856;-71
2023/06/08 02:48:42;;;;;;;18.30;8.00;;;;;;;-146.25;100.00;52177.59;2072623;28;20931;-71
2023/06/08 02:49:46;;;;;;;20.77;7.78;;;;;;;-146.25;100.00;52147.19;2080206;28;20076;-72
2023/06/08 02:50:48;;;;;;;17.40;8.25;;;;;;;-146.25;100.00;52177.59;2071795;28;29633;-72
2023/06/08 02:51:49;;;;;;;18.55;8.18;;;;;;;-146.25;100.00;52141.13;2072656;28;20043;-72
2023/06/08 02:52:51;;;;;;;18.60;7.75;;;;;;;-146.25;100.00;52189.78;2071978;28;27489;-71
2023/06/08 02:53:53;;;;;;;14.80;7.43;;;;;;;-146.25;100.00;52163.41;2063862;28;21186;-72
2023/06/08 02:54:55;;;;;;;17.85;7.90;;;;;;;-146.25;100.00;52210.03;2063936;28;20078;-74
2023/06/08 02:55:58;;;;;;;16.48;7.88;;;;;;;-146.25;100.00;52161.38;2072065;28;30322;-73
2023/06/08 02:57:01;;;;;;;19.52;7.78;;;;;;;-146.25;100.00;52149.22;2071387;28;20093;-72
2023/06/08 02:58:06;;;;;;;15.20;7.55;;;;;;;-146.25;100.00;52163.41;2072107;28;20267;-72
2023/06/08 02:59:08;;;;;;;17.40;8.13;;;;;;;-146.25;100.00;52189.78;2071126;28;20895;-72
2023/06/08 03:00:12;;;;;;;20.08;7.45;;;;;;;-146.25;100.00;52153.28;2071499;28;20047;-73
2023/06/08 03:01:33;;;;;;;21.38;7.15;;;;;;;-146.25;100.00;52208.03;2063519;28;20039;-71
2023/06/08 03:02:41;;;;;;;16.00;7.10;;;;;;;-146.25;100.00;52151.25;2060435;28;20102;-71
2023/06/08 03:03:48;;;;;;;13.13;7.28;;;;;;;-146.25;100.00;52177.59;2063792;28;20054;-72
2023/06/08 03:04:53;;;;;;;21.23;7.35;;;;;;;-146.25;100.00;52183.69;2064284;28;20054;-72
2023/06/08 03:06:00;;;;;;;20.13;7.93;;;;;;;-146.25;100.00;52191.81;2071898;28;20109;-71
2023/06/08 03:07:15;;;;;;;22.00;7.57;;;;;;;-146.25;100.00;52197.88;2071843;28;20999;-72
2023/06/08 03:08:26;;;;;;;17.08;6.53;;;;;;;-146.25;100.00;52163.41;2065800;28;20043;-72
2023/06/08 03:09:28;;;;;;;17.58;7.45;;;;;;;-146.25;100.00;52169.50;2071756;28;20038;-71
2023/06/08 03:10:32;;;;;;;17.75;7.38;;;;;;;-146.25;100.00;52185.72;2072396;28;20252;-72
2023/06/08 03:11:39;;;;;;;17.25;7.05;;;;;;;-146.25;100.00;52193.81;2063593;28;20054;-72
2023/06/08 03:12:46;;;;;;;16.77;6.90;;;;;;;-146.25;100.00;52151.25;2064535;28;20153;-72
2023/06/08 03:13:49;;;;;;;16.63;6.38;;;;;;;-146.25;100.00;52163.41;2063441;28;20047;-72
2023/06/08 03:14:53;;;;;;;14.55;7.10;;;;;;;-146.25;100.00;52185.72;2063988;28;20049;-72
2023/06/08 03:15:55;;;;;;;21.38;6.97;;;;;;;-146.25;100.00;52141.13;2063930;28;20066;-71
2023/06/08 03:17:01;;;;;;;18.17;6.85;;;;;;;-146.25;100.00;52214.09;2071386;28;32529;-71
2023/06/08 03:18:07;;;;;;;20.70;7.18;;;;;;;-146.25;100.00;52181.66;2071566;28;20193;-71
2023/06/08 03:19:10;;;;;;;16.13;6.70;;;;;;;-146.25;100.00;52159.34;2070512;28;20042;-71
2023/06/08 03:20:12;;;;;;;15.25;6.72;;;;;;;-146.25;100.00;52169.50;2063295;28;20863;-72
2023/06/08 03:21:20;;;;;;;15.35;6.55;;;;;;;-146.25;100.00;52193.81;2071716;28;20050;-72
2023/06/08 03:22:26;;;;;;;17.77;7.10;;;;;;;-146.25;100.00;52157.34;2063896;28;20047;-71
2023/06/08 03:23:40;;;;;;;14.57;6.65;;;;;;;-146.25;100.00;52165.44;2065566;28;20184;-71
2023/06/08 03:24:48;;;;;;;14.68;6.70;;;;;;;-146.25;100.00;52171.53;2071236;28;27407;-72
2023/06/08 03:25:51;;;;;;;16.85;7.22;;;;;;;-146.25;100.00;52135.03;2071559;28;21032;-72
2023/06/08 03:26:56;;;;;;;20.98;7.32;;;;;;;-146.25;100.00;52185.72;2071733;28;21045;-72
2023/06/08 03:27:57;;;;;;;13.98;7.07;;;;;;;-146.25;100.00;52157.34;2079689;28;20053;-72
2023/06/08 03:29:00;;;;;;;16.55;7.13;;;;;;;-146.25;100.00;52183.69;2080139;28;20088;-72
2023/06/08 03:30:03;;;;;;;18.52;7.28;;;;;;;-146.25;100.00;52177.59;2072036;28;20900;-72
2023/06/08 03:31:13;;;;;;;19.02;7.22;;;;;;;-146.25;100.00;52167.47;2079533;28;20050;-71
2023/06/08 03:32:20;;;;;;;18.50;7.38;;;;;;;-146.25;100.00;52199.91;2078985;28;20053;-72
2023/06/08 03:33:24;;;;;;;18.17;6.90;;;;;;;-146.25;100.00;52171.53;2063817;28;20035;-72
2023/06/08 03:34:33;;;;;;;15.45;7.57;;;;;;;-146.25;100.00;52167.47;2071274;28;20146;-72
2023/06/08 03:35:44;;;;;;;19.40;6.93;;;;;;;-146.25;100.00;52165.44;2072539;28;21175;-72
2023/06/08 03:36:57;;;;;;;17.80;6.93;;;;;;;-146.25;100.00;52181.66;2063260;28;20161;-72
2023/06/08 03:37:59;;;;;;;20.70;6.90;;;;;;;-146.25;100.00;52177.59;2065814;28;20058;-72
2023/06/08 03:39:06;;;;;;;17.42;6.85;;;;;;;-146.25;100.00;52201.94;2062896;28;20062;-72
2023/06/08 03:40:10;;;;;;;17.95;7.60;;;;;;;-146.25;100.00;52189.78;2064441;28;20166;-71
2023/06/08 03:41:13;;;;;;;18.80;7.57;;;;;;;-146.25;100.00;52143.13;2071126;28;20042;-71
2023/06/08 03:42:20;;;;;;;25.20;7.43;;;;;;;-146.25;100.00;52167.47;2063425;28;20050;-72
2023/06/08 03:43:27;;;;;;;16.17;7.05;;;;;;;-146.25;100.00;52181.66;2064035;28;20207;-72
2023/06/08 03:44:29;;;;;;;15.07;7.35;;;;;;;-146.25;100.00;52201.94;2071281;28;20035;-72
2023/06/08 03:45:33;;;;;;;17.35;7.60;;;;;;;-146.25;100.00;52143.13;2071213;28;20927;-72
2023/06/08 03:46:35;;;;;;;16.58;7.53;;;;;;;-146.25;100.00;52169.50;2071389;28;20042;-72
2023/06/08 03:47:39;;;;;;;22.08;8.00;;;;;;;-146.25;100.00;52179.63;2071386;28;20094;-72
2023/06/08 03:48:42;;;;;;;17.50;6.78;;;;;;;-146.25;100.00;52173.56;2067858;28;20070;-72
2023/06/08 03:49:45;;;;;;;19.75;7.15;;;;;;;-146.25;100.00;52165.44;2071716;28;20041;-72
2023/06/08 03:50:47;;;;;;;17.73;7.35;;;;;;;-146.25;100.00;52185.72;2079222;28;20050;-72
2023/06/08 03:51:51;;;;;;;20.95;7.03;;;;;;;-146.25;100.00;52147.19;2079760;28;20049;-72
2023/06/08 03:52:52;;;;;;;14.82;6.93;;;;;;;-146.25;100.00;52169.50;2079917;28;20081;-72
2023/06/08 03:53:54;;;;;;;16.55;7.22;;;;;;;-146.25;100.00;52189.78;2079499;28;26937;-71
2023/06/08 03:55:01;;;;;;;18.98;7.28;;;;;;;-146.25;100.00;52173.56;2079760;28;20137;-71
2023/06/08 03:56:03;;;;;;;16.75;7.10;;;;;;;-146.25;100.00;52177.59;2079585;28;20914;-71
2023/06/08 03:57:08;;;;;;;14.77;7.00;;;;;;;-146.25;100.00;52151.25;2072408;28;20050;-71
2023/06/08 03:58:14;;;;;;;13.82;7.07;;;;;;;-146.25;100.00;52185.72;2079816;28;20084;-72
2023/06/08 03:59:17;;;;;;;20.08;7.32;;;;;;;-146.25;100.00;52173.56;2072023;28;20203;-71
2023/06/08 04:00:22;;;;;;;19.65;7.07;;;;;;;-146.25;100.00;52175.56;2079978;28;20862;-72
2023/06/08 04:01:30;;;;;;;16.70;7.53;;;;;;;-146.25;100.00;52191.81;2079169;28;20037;-72
2023/06/08 04:02:32;;;;;;;18.90;7.47;;;;;;;-146.25;100.00;52177.59;2071885;28;20209;-71
2023/06/08 04:03:34;;;;;;;16.95;7.07;;;;;;;-146.25;100.00;52153.28;2071576;28;20181;-71
2023/06/08 04:04:37;;;;;;;18.60;7.07;;;;;;;-146.25;100.00;52183.69;2079557;28;20049;-71
2023/06/08 04:05:41;;;;;;;16.48;7.43;;;;;;;-146.25;100.00;52173.56;2078950;28;26721;-71
2023/06/08 04:06:45;;;;;;;21.55;7.63;;;;;;;-146.25;100.00;52137.06;2079168;28;20192;-72
2023/06/08 04:07:50;;;;;;;14.70;6.60;;;;;;;-146.25;100.00;52191.81;2079692;28;20910;-72
2023/06/08 04:08:54;;;;;;;17.80;7.20;;;;;;;-146.25;100.00;52163.41;2087727;28;20037;-72
2023/06/08 04:09:57;;;;;;;13.63;6.95;;;;;;;-146.25;100.00;52165.44;2079373;28;20905;-72
2023/06/08 04:11:01;;;;;;;16.13;6.97;;;;;;;-146.25;100.00;52165.44;2079366;28;21406;-72
2023/06/08 04:12:03;;;;;;;17.77;7.00;;;;;;;-146.25;100.00;52185.72;2079971;28;21013;-72
2023/06/08 04:13:05;;;;;;;14.50;7.03;;;;;;;-146.25;100.00;52141.13;2087747;28;20072;-72
2023/06/08 04:14:09;;;;;;;18.55;7.00;;;;;;;-146.25;100.00;52171.53;2079288;28;20160;-72
2023/06/08 04:15:13;;;;;;;18.60;7.15;;;;;;;-146.25;100.00;52181.66;2071481;28;20043;-72
2023/06/08 04:16:20;;;;;;;16.85;7.03;;;;;;;-146.25;100.00;52183.69;2080153;28;21023;-71
2023/06/08 04:17:27;;;;;;;14.20;6.03;;;;;;;-146.25;100.00;52185.72;2079569;28;20053;-72
2023/06/08 04:18:29;;;;;;;16.98;7.13;;;;;;;-146.25;100.00;52169.50;2071629;28;20046;-71
2023/06/08 04:19:32;;;;;;;19.17;6.63;;;;;;;-146.25;100.00;52199.91;2079784;28;20061;-73
2023/06/08 04:20:35;;;;;;;16.67;6.32;;;;;;;-146.25;100.00;52216.13;2071033;28;20046;-73
2023/06/08 04:21:38;;;;;;;16.83;6.15;;;;;;;-146.25;100.00;52171.53;2079522;28;20913;-71
2023/06/08 04:22:42;;;;;;;16.65;6.30;;;;;;;-146.25;100.00;52185.72;2087320;28;20188;-73
2023/06/08 04:23:46;;;;;;;18.88;5.90;;;;;;;-146.25;100.00;52141.13;2087749;28;20155;-70
2023/06/08 04:24:50;;;;;;;17.20;5.97;;;;;;;-146.25;100.00;52193.81;2079543;28;20056;-74
2023/06/08 04:25:52;;;;;;;15.00;5.72;;;;;;;-146.25;99.92;52185.72;2079473;28;20128;-71
2023/06/08 04:26:56;;;;;;;17.42;5.93;;;;;;;-146.25;99.09;52141.13;2071152;28;20093;-73
2023/06/08 04:27:58;;;;;;;14.93;5.95;;;;;;;-146.25;99.21;52183.69;2071294;28;20038;-71
2023/06/08 04:29:00;;;;;;;18.77;6.85;;;;;;;-146.25;99.57;52128.94;2079453;28;23590;-71
2023/06/08 04:30:05;;;;;;;9.57;5.30;;;;;;;-146.25;98.88;52155.31;2079026;28;20046;-71
2023/06/08 04:31:08;;;;;;;14.40;5.88;;;;;;;-146.25;98.83;52181.66;2071376;28;20046;-71
2023/06/08 04:32:11;;;;;;;16.58;5.68;;;;;;;-146.25;99.02;52167.47;2063365;28;20148;-71
2023/06/08 04:33:13;;;;;;;16.65;5.63;;;;;;;-146.25;99.01;52149.22;2071883;28;20050;-73
2023/06/08 04:34:15;;;;;;;20.63;6.43;;;;;;;-146.25;98.75;52185.72;2079566;28;20049;-72
2023/06/08 04:35:17;;;;;;;16.33;5.90;;;;;;;-146.25;97.79;52175.56;2070854;28;20049;-71
2023/06/08 04:36:19;;;;;;;15.43;6.22;;;;;;;-146.25;97.45;52185.72;2071381;28;20221;-70
2023/06/08 04:37:21;;;;;;;17.80;5.82;;;;;;;-146.25;97.25;52175.56;2071618;28;20050;-73
2023/06/08 04:38:27;;;;;;;13.63;5.43;;;;;;;-146.25;97.00;52179.63;2079493;28;20096;-72
2023/06/08 04:39:30;;;;;;;15.65;5.50;;;;;;;-146.25;96.63;52143.13;2079676;28;20076;-71
2023/06/08 04:40:33;;;;;;;17.05;5.85;;;;;;;-146.25;95.93;52171.53;2079048;28;20127;-72
2023/06/08 04:41:36;;;;;;;15.43;5.88;;;;;;;-146.25;95.75;52165.44;2079851;28;20053;-71
2023/06/08 04:42:40;;;;;;;19.70;6.10;;;;;;;-146.25;95.85;52220.19;2087283;28;20049;-71
2023/06/08 04:43:49;;;;;;;15.90;5.50;;;;;;;-146.25;94.50;52181.66;2087153;28;21054;-72
2023/06/08 04:44:55;;;;;;;18.30;6.30;;;;;;;-146.25;93.24;52175.56;2079355;28;20038;-72
2023/06/08 04:45:59;;;;;;;12.27;6.03;;;;;;;-146.25;92.84;52161.38;2079436;28;20172;-72
2023/06/08 04:47:03;;;;;;;16.20;7.15;;;;;;;-146.25;91.69;52177.59;2079251;28;20046;-72
2023/06/08 04:48:05;;;;;;;14.27;6.90;;;;;;;-146.25;91.92;52210.03;2079273;28;20091;-73
2023/06/08 04:49:07;;;;;;;14.10;6.30;;;;;;;-146.25;92.00;52197.88;2086677;28;32131;-72
2023/06/08 04:50:09;;;;;;;16.10;6.60;;;;;;;-146.25;92.48;52149.22;2078389;28;20169;-73
2023/06/08 04:51:11;;;;;;;11.80;6.80;;;;;;;-146.25;91.81;52189.78;2079475;28;20168;-68
2023/06/08 04:52:15;;;;;;;16.00;6.75;;;;;;;-146.25;92.13;52177.59;2087131;28;25771;-73
2023/06/08 04:53:17;;;;;;;18.20;6.97;;;;;;;-146.25;91.85;52179.63;2078994;28;20049;-72
2023/06/08 04:54:21;;;;;;;14.57;6.60;;;;;;;-146.25;91.09;52173.56;2078792;28;24401;-71